sensor_id;sensor_type;location;lat;lon;timestamp;P1;durP1;ratioP1;P2;durP2;ratioP2
40541;SDS011;49288;52.194;5.676;2022-08-21T00:03:08;8.70;;;4.63;;
40541;SDS011;49288;52.194;5.676;2022-08-21T00:08:11;9.65;;;4.35;;
40541;SDS011;49288;52.194;5.676;2022-08-21T00:13:14;9.73;;;4.70;;
40541;SDS011;49288;52.194;5.676;2022-08-21T00:18:20;10.63;;;4.57;;
40541;SDS011;49288;52.194;5.676;2022-08-21T00:23:23;7.28;;;4.30;;
40541;SDS011;49288;52.194;5.676;2022-08-21T00:28:25;9.70;;;4.50;;
40541;SDS011;49288;52.194;5.676;2022-08-21T00:33:46;7.93;;;4.50;;
40541;SDS011;49288;52.194;5.676;2022-08-21T00:38:49;8.50;;;4.72;;
40541;SDS011;49288;52.194;5.676;2022-08-21T00:43:52;10.30;;;5.13;;
40541;SDS011;49288;52.194;5.676;2022-08-21T00:48:55;12.27;;;4.50;;
40541;SDS011;49288;52.194;5.676;2022-08-21T00:54:00;6.93;;;4.35;;
40541;SDS011;49288;52.194;5.676;2022-08-21T00:59:04;8.93;;;4.73;;
40541;SDS011;49288;52.194;5.676;2022-08-21T01:04:07;11.70;;;4.35;;
40541;SDS011;49288;52.194;5.676;2022-08-21T01:09:10;8.73;;;4.47;;
40541;SDS011;49288;52.194;5.676;2022-08-21T01:14:13;8.38;;;4.63;;
40541;SDS011;49288;52.194;5.676;2022-08-21T01:19:17;8.65;;;4.30;;
40541;SDS011;49288;52.194;5.676;2022-08-21T01:24:20;8.63;;;4.70;;
40541;SDS011;49288;52.194;5.676;2022-08-21T01:29:27;10.40;;;4.57;;
40541;SDS011;49288;52.194;5.676;2022-08-21T01:34:33;7.95;;;4.68;;
40541;SDS011;49288;52.194;5.676;2022-08-21T01:39:36;9.35;;;4.75;;
40541;SDS011;49288;52.194;5.676;2022-08-21T01:44:40;12.98;;;4.85;;
40541;SDS011;49288;52.194;5.676;2022-08-21T01:49:43;10.27;;;5.15;;
40541;SDS011;49288;52.194;5.676;2022-08-21T01:54:47;9.90;;;4.60;;
40541;SDS011;49288;52.194;5.676;2022-08-21T01:59:56;8.23;;;4.72;;
40541;SDS011;49288;52.194;5.676;2022-08-21T02:04:59;7.15;;;4.68;;
40541;SDS011;49288;52.194;5.676;2022-08-21T02:10:04;9.98;;;4.88;;
40541;SDS011;49288;52.194;5.676;2022-08-21T02:15:08;8.90;;;5.25;;
40541;SDS011;49288;52.194;5.676;2022-08-21T02:20:31;7.10;;;4.20;;
40541;SDS011;49288;52.194;5.676;2022-08-21T02:25:40;9.40;;;4.82;;
40541;SDS011;49288;52.194;5.676;2022-08-21T02:30:44;8.07;;;4.78;;
40541;SDS011;49288;52.194;5.676;2022-08-21T02:35:49;14.23;;;5.60;;
40541;SDS011;49288;52.194;5.676;2022-08-21T02:40:52;9.55;;;4.93;;
40541;SDS011;49288;52.194;5.676;2022-08-21T02:45:56;8.98;;;4.78;;
40541;SDS011;49288;52.194;5.676;2022-08-21T02:51:00;8.27;;;4.78;;
40541;SDS011;49288;52.194;5.676;2022-08-21T02:56:07;8.13;;;4.88;;
40541;SDS011;49288;52.194;5.676;2022-08-21T03:01:12;7.57;;;4.97;;
40541;SDS011;49288;52.194;5.676;2022-08-21T03:06:15;7.68;;;5.22;;
40541;SDS011;49288;52.194;5.676;2022-08-21T03:11:37;9.02;;;5.10;;
40541;SDS011;49288;52.194;5.676;2022-08-21T03:16:41;7.97;;;4.70;;
40541;SDS011;49288;52.194;5.676;2022-08-21T03:21:45;10.73;;;5.63;;
40541;SDS011;49288;52.194;5.676;2022-08-21T03:26:49;8.55;;;5.13;;
40541;SDS011;49288;52.194;5.676;2022-08-21T03:31:54;7.40;;;5.18;;
40541;SDS011;49288;52.194;5.676;2022-08-21T03:36:56;8.18;;;4.97;;
40541;SDS011;49288;52.194;5.676;2022-08-21T03:41:59;7.93;;;5.40;;
40541;SDS011;49288;52.194;5.676;2022-08-21T03:47:02;10.35;;;5.95;;
40541;SDS011;49288;52.194;5.676;2022-08-21T03:52:04;11.25;;;5.60;;
40541;SDS011;49288;52.194;5.676;2022-08-21T03:57:07;9.15;;;5.15;;
40541;SDS011;49288;52.194;5.676;2022-08-21T04:02:11;9.17;;;4.90;;
40541;SDS011;49288;52.194;5.676;2022-08-21T04:07:16;10.07;;;5.22;;
40541;SDS011;49288;52.194;5.676;2022-08-21T04:12:20;8.73;;;4.82;;
40541;SDS011;49288;52.194;5.676;2022-08-21T04:17:22;10.75;;;4.97;;
40541;SDS011;49288;52.194;5.676;2022-08-21T04:22:25;8.82;;;5.50;;
40541;SDS011;49288;52.194;5.676;2022-08-21T04:27:28;9.98;;;5.50;;
40541;SDS011;49288;52.194;5.676;2022-08-21T04:32:31;10.18;;;5.55;;
40541;SDS011;49288;52.194;5.676;2022-08-21T04:37:34;9.35;;;4.82;;
40541;SDS011;49288;52.194;5.676;2022-08-21T04:42:45;8.20;;;5.28;;
40541;SDS011;49288;52.194;5.676;2022-08-21T04:47:52;11.57;;;6.13;;
40541;SDS011;49288;52.194;5.676;2022-08-21T04:52:57;13.93;;;5.50;;
40541;SDS011;49288;52.194;5.676;2022-08-21T04:58:00;10.02;;;5.05;;
40541;SDS011;49288;52.194;5.676;2022-08-21T05:03:03;15.00;;;6.30;;
40541;SDS011;49288;52.194;5.676;2022-08-21T05:08:07;9.82;;;5.82;;
40541;SDS011;49288;52.194;5.676;2022-08-21T05:13:13;9.93;;;6.22;;
40541;SDS011;49288;52.194;5.676;2022-08-21T05:23:21;11.05;;;6.10;;
40541;SDS011;49288;52.194;5.676;2022-08-21T05:28:23;12.95;;;7.38;;
40541;SDS011;49288;52.194;5.676;2022-08-21T05:33:27;10.68;;;6.90;;
40541;SDS011;49288;52.194;5.676;2022-08-21T05:38:30;15.40;;;7.57;;
40541;SDS011;49288;52.194;5.676;2022-08-21T05:43:33;11.90;;;7.30;;
40541;SDS011;49288;52.194;5.676;2022-08-21T05:48:38;14.57;;;7.03;;
40541;SDS011;49288;52.194;5.676;2022-08-21T05:53:41;15.95;;;7.50;;
40541;SDS011;49288;52.194;5.676;2022-08-21T05:58:44;14.13;;;7.07;;
40541;SDS011;49288;52.194;5.676;2022-08-21T06:03:47;14.80;;;7.72;;
40541;SDS011;49288;52.194;5.676;2022-08-21T06:09:08;16.92;;;8.32;;
40541;SDS011;49288;52.194;5.676;2022-08-21T06:14:15;15.20;;;7.47;;
40541;SDS011;49288;52.194;5.676;2022-08-21T06:19:18;14.23;;;8.30;;
40541;SDS011;49288;52.194;5.676;2022-08-21T06:24:39;14.32;;;8.90;;
40541;SDS011;49288;52.194;5.676;2022-08-21T06:29:42;22.02;;;10.68;;
40541;SDS011;49288;52.194;5.676;2022-08-21T06:34:45;36.77;;;14.00;;
40541;SDS011;49288;52.194;5.676;2022-08-21T06:39:48;31.90;;;12.75;;
40541;SDS011;49288;52.194;5.676;2022-08-21T06:44:51;31.85;;;12.65;;
40541;SDS011;49288;52.194;5.676;2022-08-21T06:49:53;35.85;;;11.30;;
40541;SDS011;49288;52.194;5.676;2022-08-21T06:54:56;26.13;;;11.00;;
40541;SDS011;49288;52.194;5.676;2022-08-21T06:59:59;31.02;;;11.95;;
40541;SDS011;49288;52.194;5.676;2022-08-21T07:05:02;26.35;;;9.02;;
40541;SDS011;49288;52.194;5.676;2022-08-21T07:10:19;22.60;;;10.57;;
40541;SDS011;49288;52.194;5.676;2022-08-21T07:15:23;24.67;;;10.38;;
40541;SDS011;49288;52.194;5.676;2022-08-21T07:20:27;34.50;;;12.27;;
40541;SDS011;49288;52.194;5.676;2022-08-21T07:25:31;32.10;;;10.65;;
40541;SDS011;49288;52.194;5.676;2022-08-21T07:30:33;22.38;;;9.80;;
40541;SDS011;49288;52.194;5.676;2022-08-21T07:35:36;25.73;;;10.25;;
40541;SDS011;49288;52.194;5.676;2022-08-21T07:40:38;30.05;;;10.10;;
40541;SDS011;49288;52.194;5.676;2022-08-21T07:45:41;32.70;;;9.65;;
40541;SDS011;49288;52.194;5.676;2022-08-21T07:50:44;22.92;;;8.77;;
40541;SDS011;49288;52.194;5.676;2022-08-21T07:55:47;28.60;;;8.57;;
40541;SDS011;49288;52.194;5.676;2022-08-21T08:00:50;28.23;;;9.40;;
40541;SDS011;49288;52.194;5.676;2022-08-21T08:05:52;31.98;;;9.88;;
40541;SDS011;49288;52.194;5.676;2022-08-21T08:10:56;24.13;;;8.30;;
40541;SDS011;49288;52.194;5.676;2022-08-21T08:15:59;33.50;;;8.32;;
40541;SDS011;49288;52.194;5.676;2022-08-21T08:21:02;34.72;;;9.52;;
40541;SDS011;49288;52.194;5.676;2022-08-21T08:26:05;26.60;;;7.20;;
40541;SDS011;49288;52.194;5.676;2022-08-21T08:31:08;21.57;;;7.93;;
40541;SDS011;49288;52.194;5.676;2022-08-21T08:36:18;26.95;;;7.70;;
40541;SDS011;49288;52.194;5.676;2022-08-21T08:41:21;22.48;;;6.68;;
40541;SDS011;49288;52.194;5.676;2022-08-21T08:46:35;22.35;;;7.38;;
40541;SDS011;49288;52.194;5.676;2022-08-21T08:51:46;21.98;;;7.47;;
40541;SDS011;49288;52.194;5.676;2022-08-21T08:57:03;21.00;;;7.35;;
40541;SDS011;49288;52.194;5.676;2022-08-21T09:02:12;19.77;;;5.43;;
40541;SDS011;49288;52.194;5.676;2022-08-21T09:12:38;21.33;;;5.13;;
40541;SDS011;49288;52.194;5.676;2022-08-21T09:17:49;23.08;;;5.03;;
40541;SDS011;49288;52.194;5.676;2022-08-21T09:28:43;19.70;;;4.55;;
40541;SDS011;49288;52.194;5.676;2022-08-21T09:38:52;18.87;;;4.27;;
40541;SDS011;49288;52.194;5.676;2022-08-21T09:43:56;17.33;;;4.18;;
40541;SDS011;49288;52.194;5.676;2022-08-21T09:49:01;19.25;;;4.55;;
40541;SDS011;49288;52.194;5.676;2022-08-21T09:59:17;16.27;;;3.93;;
40541;SDS011;49288;52.194;5.676;2022-08-21T10:04:22;7.72;;;3.10;;
40541;SDS011;49288;52.194;5.676;2022-08-21T10:25:07;12.55;;;3.85;;
40541;SDS011;49288;52.194;5.676;2022-08-21T10:31:12;17.23;;;3.85;;
40541;SDS011;49288;52.194;5.676;2022-08-21T10:36:06;15.75;;;3.83;;
40541;SDS011;49288;52.194;5.676;2022-08-21T10:51:41;18.08;;;3.60;;
40541;SDS011;49288;52.194;5.676;2022-08-21T10:56:54;15.18;;;3.97;;
40541;SDS011;49288;52.194;5.676;2022-08-21T11:07:29;13.80;;;3.58;;
40541;SDS011;49288;52.194;5.676;2022-08-21T11:12:56;10.05;;;3.00;;
40541;SDS011;49288;52.194;5.676;2022-08-21T11:23:37;12.60;;;4.15;;
40541;SDS011;49288;52.194;5.676;2022-08-21T11:28:45;16.23;;;3.80;;
40541;SDS011;49288;52.194;5.676;2022-08-21T11:34:23;14.82;;;3.35;;
40541;SDS011;49288;52.194;5.676;2022-08-21T12:00:50;10.55;;;3.30;;
40541;SDS011;49288;52.194;5.676;2022-08-21T12:06:06;16.77;;;3.70;;
40541;SDS011;49288;52.194;5.676;2022-08-21T12:16:38;10.48;;;2.95;;
40541;SDS011;49288;52.194;5.676;2022-08-21T12:27:25;10.07;;;3.17;;
40541;SDS011;49288;52.194;5.676;2022-08-21T12:32:42;13.85;;;3.50;;
40541;SDS011;49288;52.194;5.676;2022-08-21T12:38:12;14.05;;;3.42;;
40541;SDS011;49288;52.194;5.676;2022-08-21T12:54:28;15.13;;;3.40;;
40541;SDS011;49288;52.194;5.676;2022-08-21T12:59:37;11.05;;;3.00;;
40541;SDS011;49288;52.194;5.676;2022-08-21T13:04:42;12.05;;;3.40;;
40541;SDS011;49288;52.194;5.676;2022-08-21T13:10:05;18.88;;;4.20;;
40541;SDS011;49288;52.194;5.676;2022-08-21T13:15:11;19.88;;;3.50;;
40541;SDS011;49288;52.194;5.676;2022-08-21T13:25:27;11.55;;;3.45;;
40541;SDS011;49288;52.194;5.676;2022-08-21T13:30:31;20.98;;;4.38;;
40541;SDS011;49288;52.194;5.676;2022-08-21T13:35:36;12.40;;;3.42;;
40541;SDS011;49288;52.194;5.676;2022-08-21T13:40:50;14.88;;;3.92;;
40541;SDS011;49288;52.194;5.676;2022-08-21T13:45:55;13.43;;;3.92;;
40541;SDS011;49288;52.194;5.676;2022-08-21T13:50:59;10.93;;;3.40;;
40541;SDS011;49288;52.194;5.676;2022-08-21T13:56:03;16.55;;;3.55;;
40541;SDS011;49288;52.194;5.676;2022-08-21T14:01:15;15.48;;;3.97;;
40541;SDS011;49288;52.194;5.676;2022-08-21T14:06:38;12.73;;;3.17;;
40541;SDS011;49288;52.194;5.676;2022-08-21T14:11:43;12.20;;;3.25;;
40541;SDS011;49288;52.194;5.676;2022-08-21T14:16:52;14.38;;;3.40;;
40541;SDS011;49288;52.194;5.676;2022-08-21T14:21:57;12.00;;;3.50;;
40541;SDS011;49288;52.194;5.676;2022-08-21T14:27:02;12.30;;;3.28;;
40541;SDS011;49288;52.194;5.676;2022-08-21T14:32:14;12.18;;;4.05;;
40541;SDS011;49288;52.194;5.676;2022-08-21T14:37:26;11.55;;;3.22;;
40541;SDS011;49288;52.194;5.676;2022-08-21T14:42:30;9.93;;;3.30;;
40541;SDS011;49288;52.194;5.676;2022-08-21T14:47:33;9.77;;;3.30;;
40541;SDS011;49288;52.194;5.676;2022-08-21T14:52:36;11.23;;;3.50;;
40541;SDS011;49288;52.194;5.676;2022-08-21T14:57:40;12.63;;;3.70;;
40541;SDS011;49288;52.194;5.676;2022-08-21T15:02:45;13.35;;;3.72;;
40541;SDS011;49288;52.194;5.676;2022-08-21T15:07:50;12.82;;;3.15;;
40541;SDS011;49288;52.194;5.676;2022-08-21T15:12:52;14.05;;;3.28;;
40541;SDS011;49288;52.194;5.676;2022-08-21T15:17:55;8.65;;;3.45;;
40541;SDS011;49288;52.194;5.676;2022-08-21T15:22:58;8.52;;;3.20;;
40541;SDS011;49288;52.194;5.676;2022-08-21T15:28:01;13.93;;;3.67;;
40541;SDS011;49288;52.194;5.676;2022-08-21T15:33:04;13.15;;;3.30;;
40541;SDS011;49288;52.194;5.676;2022-08-21T15:38:07;11.73;;;3.45;;
40541;SDS011;49288;52.194;5.676;2022-08-21T15:43:18;16.08;;;3.50;;
40541;SDS011;49288;52.194;5.676;2022-08-21T15:48:32;9.38;;;3.00;;
40541;SDS011;49288;52.194;5.676;2022-08-21T15:53:34;10.50;;;3.33;;
40541;SDS011;49288;52.194;5.676;2022-08-21T15:58:40;8.68;;;3.28;;
40541;SDS011;49288;52.194;5.676;2022-08-21T16:04:01;14.15;;;3.55;;
40541;SDS011;49288;52.194;5.676;2022-08-21T16:09:08;10.57;;;3.15;;
40541;SDS011;49288;52.194;5.676;2022-08-21T16:14:11;8.10;;;3.35;;
40541;SDS011;49288;52.194;5.676;2022-08-21T16:19:15;11.98;;;3.22;;
40541;SDS011;49288;52.194;5.676;2022-08-21T16:24:19;13.73;;;3.25;;
40541;SDS011;49288;52.194;5.676;2022-08-21T16:29:22;13.60;;;3.70;;
40541;SDS011;49288;52.194;5.676;2022-08-21T16:34:27;11.63;;;3.20;;
40541;SDS011;49288;52.194;5.676;2022-08-21T16:39:30;15.40;;;3.58;;
40541;SDS011;49288;52.194;5.676;2022-08-21T16:44:33;11.90;;;3.30;;
40541;SDS011;49288;52.194;5.676;2022-08-21T16:49:38;8.15;;;3.08;;
40541;SDS011;49288;52.194;5.676;2022-08-21T16:54:40;12.40;;;3.50;;
40541;SDS011;49288;52.194;5.676;2022-08-21T17:04:46;11.63;;;3.00;;
40541;SDS011;49288;52.194;5.676;2022-08-21T17:09:51;13.02;;;3.55;;
40541;SDS011;49288;52.194;5.676;2022-08-21T17:14:54;12.00;;;3.47;;
40541;SDS011;49288;52.194;5.676;2022-08-21T17:19:58;11.88;;;3.33;;
40541;SDS011;49288;52.194;5.676;2022-08-21T17:25:01;14.73;;;3.50;;
40541;SDS011;49288;52.194;5.676;2022-08-21T17:30:04;14.57;;;3.83;;
40541;SDS011;49288;52.194;5.676;2022-08-21T17:35:10;8.43;;;3.03;;
40541;SDS011;49288;52.194;5.676;2022-08-21T17:40:14;18.05;;;3.60;;
40541;SDS011;49288;52.194;5.676;2022-08-21T17:45:18;15.55;;;4.00;;
40541;SDS011;49288;52.194;5.676;2022-08-21T17:50:21;13.30;;;3.63;;
40541;SDS011;49288;52.194;5.676;2022-08-21T17:55:24;10.48;;;3.00;;
40541;SDS011;49288;52.194;5.676;2022-08-21T18:00:29;10.98;;;3.08;;
40541;SDS011;49288;52.194;5.676;2022-08-21T18:05:33;12.50;;;3.35;;
40541;SDS011;49288;52.194;5.676;2022-08-21T18:10:40;16.95;;;3.42;;
40541;SDS011;49288;52.194;5.676;2022-08-21T18:15:45;14.05;;;3.45;;
40541;SDS011;49288;52.194;5.676;2022-08-21T18:20:50;7.20;;;2.70;;
40541;SDS011;49288;52.194;5.676;2022-08-21T18:25:54;10.13;;;3.17;;
40541;SDS011;49288;52.194;5.676;2022-08-21T18:30:58;11.85;;;3.10;;
40541;SDS011;49288;52.194;5.676;2022-08-21T18:36:00;21.15;;;3.30;;
40541;SDS011;49288;52.194;5.676;2022-08-21T18:41:05;9.98;;;2.90;;
40541;SDS011;49288;52.194;5.676;2022-08-21T18:46:11;12.32;;;3.40;;
40541;SDS011;49288;52.194;5.676;2022-08-21T18:51:14;11.50;;;3.22;;
40541;SDS011;49288;52.194;5.676;2022-08-21T18:56:17;12.27;;;4.10;;
40541;SDS011;49288;52.194;5.676;2022-08-21T19:01:20;10.27;;;3.30;;
40541;SDS011;49288;52.194;5.676;2022-08-21T19:06:25;11.30;;;3.42;;
40541;SDS011;49288;52.194;5.676;2022-08-21T19:11:27;13.02;;;3.50;;
40541;SDS011;49288;52.194;5.676;2022-08-21T19:16:31;12.32;;;3.15;;
40541;SDS011;49288;52.194;5.676;2022-08-21T19:21:34;8.85;;;3.00;;
40541;SDS011;49288;52.194;5.676;2022-08-21T19:31:40;9.30;;;3.03;;
40541;SDS011;49288;52.194;5.676;2022-08-21T19:36:44;8.85;;;3.50;;
40541;SDS011;49288;52.194;5.676;2022-08-21T19:41:50;7.88;;;3.20;;
40541;SDS011;49288;52.194;5.676;2022-08-21T19:46:56;7.93;;;3.60;;
40541;SDS011;49288;52.194;5.676;2022-08-21T19:51:59;12.05;;;3.15;;
40541;SDS011;49288;52.194;5.676;2022-08-21T19:57:14;13.43;;;3.78;;
40541;SDS011;49288;52.194;5.676;2022-08-21T20:02:19;20.67;;;3.92;;
40541;SDS011;49288;52.194;5.676;2022-08-21T20:07:22;18.20;;;3.85;;
40541;SDS011;49288;52.194;5.676;2022-08-21T20:12:28;8.60;;;3.30;;
40541;SDS011;49288;52.194;5.676;2022-08-21T20:17:31;8.80;;;3.50;;
40541;SDS011;49288;52.194;5.676;2022-08-21T20:22:34;8.75;;;3.35;;
40541;SDS011;49288;52.194;5.676;2022-08-21T20:27:36;11.68;;;3.45;;
40541;SDS011;49288;52.194;5.676;2022-08-21T20:32:41;8.50;;;3.45;;
40541;SDS011;49288;52.194;5.676;2022-08-21T20:38:03;8.38;;;3.55;;
40541;SDS011;49288;52.194;5.676;2022-08-21T20:43:06;9.25;;;3.53;;
40541;SDS011;49288;52.194;5.676;2022-08-21T20:48:25;14.98;;;3.80;;
40541;SDS011;49288;52.194;5.676;2022-08-21T20:58:54;10.07;;;3.38;;
40541;SDS011;49288;52.194;5.676;2022-08-21T21:04:03;14.90;;;3.78;;
40541;SDS011;49288;52.194;5.676;2022-08-21T21:09:18;11.65;;;3.60;;
40541;SDS011;49288;52.194;5.676;2022-08-21T21:14:37;12.60;;;3.83;;
40541;SDS011;49288;52.194;5.676;2022-08-21T21:19:47;11.48;;;3.78;;
40541;SDS011;49288;52.194;5.676;2022-08-21T21:25:11;10.43;;;3.70;;
40541;SDS011;49288;52.194;5.676;2022-08-21T21:30:42;12.13;;;4.15;;
40541;SDS011;49288;52.194;5.676;2022-08-21T21:35:49;8.65;;;3.70;;
40541;SDS011;49288;52.194;5.676;2022-08-21T21:40:58;9.27;;;3.53;;
40541;SDS011;49288;52.194;5.676;2022-08-21T21:46:42;8.50;;;4.05;;
40541;SDS011;49288;52.194;5.676;2022-08-21T21:52:14;10.82;;;4.00;;
40541;SDS011;49288;52.194;5.676;2022-08-21T21:57:37;10.75;;;4.03;;
40541;SDS011;49288;52.194;5.676;2022-08-21T22:19:23;10.85;;;4.20;;
40541;SDS011;49288;52.194;5.676;2022-08-21T22:24:33;9.15;;;3.85;;
40541;SDS011;49288;52.194;5.676;2022-08-21T22:34:57;11.60;;;4.67;;
40541;SDS011;49288;52.194;5.676;2022-08-21T22:40:11;11.18;;;3.97;;
40541;SDS011;49288;52.194;5.676;2022-08-21T22:45:17;9.20;;;4.22;;
40541;SDS011;49288;52.194;5.676;2022-08-21T22:56:01;11.50;;;4.10;;
40541;SDS011;49288;52.194;5.676;2022-08-21T23:01:11;12.23;;;4.53;;
40541;SDS011;49288;52.194;5.676;2022-08-21T23:06:25;13.15;;;4.20;;
40541;SDS011;49288;52.194;5.676;2022-08-21T23:11:39;15.07;;;4.72;;
40541;SDS011;49288;52.194;5.676;2022-08-21T23:22:43;12.23;;;4.28;;
40541;SDS011;49288;52.194;5.676;2022-08-21T23:43:49;9.60;;;3.85;;
